Time;durP1;ratioP1;P1;durP2;ratioP2;P2;SDS_P1;SDS_P2;PMS_P1;PMS_P2;Temp;Humidity;BMP_temperature;BMP_pressure;BME280_temperature;BME280_humidity;BME280_pressure;Samples;Min_cycle;Max_cycle;Signal;HPM_P1;HPM_P2
2021/10/22 00:00:15;;;;;;;6.00;0.98;;;6.50;99.90;;;;;;4988275;28;20034;-76
2021/10/22 00:02:41;;;;;;;0.68;0.55;;;6.60;99.90;;;;;;4987509;28;20023;-74
2021/10/22 00:05:07;;;;;;;6.35;1.83;;;6.50;99.90;;;;;;4988344;28;20097;-76
2021/10/22 00:07:32;;;;;;;0.55;0.28;;;6.50;99.90;;;;;;4989200;28;20041;-76
2021/10/22 00:09:58;;;;;;;6.50;1.08;;;6.50;99.90;;;;;;4987457;28;20058;-75
2021/10/22 00:12:24;;;;;;;4.18;0.93;;;6.50;99.90;;;;;;4987602;28;20077;-76
2021/10/22 00:14:49;;;;;;;13.25;1.33;;;6.50;99.90;;;;;;4987533;28;20030;-76
2021/10/22 00:17:15;;;;;;;8.63;1.00;;;6.50;99.90;;;;;;4988528;28;20055;-76
2021/10/22 00:19:41;;;;;;;5.00;0.47;;;6.40;99.90;;;;;;4989097;28;20030;-75
2021/10/22 00:22:07;;;;;;;6.22;1.42;;;6.40;99.90;;;;;;4988964;28;20124;-74
2021/10/22 00:24:33;;;;;;;12.93;0.88;;;6.40;99.90;;;;;;4988117;28;20031;-72
2021/10/22 00:26:59;;;;;;;3.55;1.08;;;6.40;99.90;;;;;;4988927;28;20089;-75
2021/10/22 00:29:24;;;;;;;5.55;1.75;;;6.40;99.90;;;;;;4986951;28;20058;-73
2021/10/22 00:31:50;;;;;;;3.08;0.50;;;6.50;99.90;;;;;;4988900;28;20027;-75
2021/10/22 00:34:16;;;;;;;1.48;0.30;;;6.40;99.90;;;;;;4989262;28;20030;-74
2021/10/22 00:36:43;;;;;;;6.07;0.40;;;6.40;99.90;;;;;;4988455;28;20423;-77
2021/10/22 00:39:10;;;;;;;6.00;1.23;;;6.40;99.90;;;;;;4988878;28;20030;-74
2021/10/22 00:41:37;;;;;;;4.97;0.30;;;6.40;99.90;;;;;;4988235;28;20027;-75
2021/10/22 00:44:03;;;;;;;13.25;0.95;;;6.40;99.90;;;;;;4986703;28;20038;-74
2021/10/22 00:46:30;;;;;;;3.53;1.17;;;6.40;99.90;;;;;;4988257;28;20042;-73
2021/10/22 00:48:57;;;;;;;0.60;0.45;;;6.40;99.90;;;;;;4988360;28;20026;-75
2021/10/22 00:51:24;;;;;;;8.75;1.15;;;6.50;99.90;;;;;;4987796;28;20038;-73
2021/10/22 00:53:50;;;;;;;5.90;0.85;;;6.50;99.90;;;;;;4987635;28;20087;-73
2021/10/22 00:56:16;;;;;;;2.60;0.57;;;6.50;99.90;;;;;;4986310;28;20076;-73
2021/10/22 00:58:42;;;;;;;1.10;0.47;;;6.50;99.90;;;;;;4987145;28;20027;-74
2021/10/22 01:01:09;;;;;;;4.35;1.05;;;6.50;99.90;;;;;;4987779;28;20091;-72
2021/10/22 01:03:34;;;;;;;0.40;0.38;;;6.50;99.90;;;;;;4987654;28;20078;-76
2021/10/22 01:06:04;;;;;;;2.90;0.82;;;6.60;99.90;;;;;;4988188;28;20019;-74
2021/10/22 01:08:31;;;;;;;4.35;1.55;;;6.50;99.90;;;;;;4986416;28;20444;-77
2021/10/22 01:10:59;;;;;;;0.50;0.43;;;6.50;99.90;;;;;;4987446;28;20043;-77
2021/10/22 01:13:25;;;;;;;5.35;0.32;;;6.50;99.90;;;;;;4986932;28;20027;-76
2021/10/22 01:15:51;;;;;;;0.70;0.38;;;6.60;99.90;;;;;;4986202;28;20071;-81
2021/10/22 01:18:17;;;;;;;4.30;0.63;;;6.50;99.90;;;;;;4986660;28;20034;-75
2021/10/22 01:20:43;;;;;;;1.58;0.85;;;6.60;99.90;;;;;;4987928;28;20041;-78
2021/10/22 01:23:10;;;;;;;4.70;0.90;;;6.60;99.90;;;;;;4987347;28;20042;-75
2021/10/22 01:25:35;;;;;;;1.38;0.40;;;6.50;99.90;;;;;;4986029;28;20031;-76
2021/10/22 01:28:02;;;;;;;3.65;0.57;;;6.60;99.90;;;;;;4984066;28;20538;-78
2021/10/22 01:30:30;;;;;;;1.35;0.25;;;6.60;99.90;;;;;;4987407;28;20402;-75
2021/10/22 01:33:02;;;;;;;1.90;0.95;;;6.60;99.90;;;;;;4987644;28;20061;-78
2021/10/22 01:35:27;;;;;;;15.18;1.33;;;6.60;99.90;;;;;;4986126;28;20050;-81
2021/10/22 01:37:53;;;;;;;4.45;1.15;;;6.70;99.90;;;;;;4985872;28;20042;-76
2021/10/22 01:40:23;;;;;;;1.10;0.43;;;6.70;99.90;;;;;;4986586;28;20027;-82
2021/10/22 01:42:58;;;;;;;1.02;0.28;;;6.70;99.90;;;;;;4987541;28;20452;-76
2021/10/22 01:45:24;;;;;;;4.18;0.38;;;6.70;99.90;;;;;;4986987;28;20053;-81
2021/10/22 01:47:49;;;;;;;1.25;0.38;;;6.70;99.90;;;;;;4987616;28;20074;-79
2021/10/22 01:50:16;;;;;;;4.78;0.20;;;6.70;99.90;;;;;;4987483;28;20038;-77
2021/10/22 01:52:42;;;;;;;4.05;0.68;;;6.70;99.90;;;;;;4985558;28;20039;-77
2021/10/22 01:55:09;;;;;;;4.72;0.93;;;6.70;99.90;;;;;;4987215;28;20517;-76
2021/10/22 01:57:35;;;;;;;3.95;1.00;;;6.70;99.90;;;;;;4985868;28;20049;-77
2021/10/22 02:00:00;;;;;;;4.18;0.88;;;6.60;99.90;;;;;;4984857;28;20034;-81
2021/10/22 02:02:26;;;;;;;1.88;0.50;;;6.60;99.90;;;;;;4987022;28;20027;-79
2021/10/22 02:04:51;;;;;;;1.35;0.70;;;6.70;99.90;;;;;;4987157;28;20479;-80
2021/10/22 02:07:17;;;;;;;0.68;0.43;;;6.80;99.90;;;;;;4985109;28;20034;-79
2021/10/22 02:09:46;;;;;;;14.15;0.88;;;6.60;99.90;;;;;;4984966;28;20057;-76
2021/10/22 02:12:12;;;;;;;6.03;0.93;;;6.60;99.90;;;;;;4987069;28;20035;-76
2021/10/22 02:14:37;;;;;;;1.20;0.43;;;6.60;99.90;;;;;;4986490;28;20086;-76
2021/10/22 02:17:03;;;;;;;1.30;0.40;;;6.60;99.90;;;;;;4985710;28;20023;-77
2021/10/22 02:19:29;;;;;;;1.58;0.75;;;6.60;99.90;;;;;;4985865;28;20114;-77
2021/10/22 02:21:55;;;;;;;4.32;0.50;;;6.60;99.90;;;;;;4985591;28;20046;-77
2021/10/22 02:24:21;;;;;;;0.88;0.40;;;6.60;99.90;;;;;;4985241;28;20031;-77
2021/10/22 02:26:47;;;;;;;2.22;0.98;;;6.60;99.90;;;;;;4986673;28;20082;-76
2021/10/22 02:29:13;;;;;;;14.38;1.33;;;6.70;99.90;;;;;;4986642;28;20026;-76
2021/10/22 02:31:39;;;;;;;1.13;0.30;;;6.70;99.90;;;;;;4986532;28;20042;-80
2021/10/22 02:34:05;;;;;;;11.18;1.77;;;6.70;99.90;;;;;;4986001;28;20490;-78
2021/10/22 02:36:31;;;;;;;3.72;1.38;;;6.80;99.90;;;;;;4985330;28;20034;-76
2021/10/22 02:38:56;;;;;;;0.32;0.30;;;6.80;99.90;;;;;;4986220;28;20027;-78
2021/10/22 02:41:22;;;;;;;6.53;1.00;;;6.80;99.90;;;;;;4985667;28;20031;-75
2021/10/22 02:43:48;;;;;;;4.30;0.90;;;6.80;99.90;;;;;;4986381;28;20038;-76
2021/10/22 02:46:15;;;;;;;0.40;0.30;;;6.80;99.90;;;;;;4986496;28;20023;-72
2021/10/22 02:48:40;;;;;;;1.45;0.68;;;6.70;99.90;;;;;;4984666;28;20042;-77
2021/10/22 02:51:06;;;;;;;7.15;1.05;;;6.70;99.90;;;;;;4985070;28;20039;-76
2021/10/22 02:53:32;;;;;;;2.20;0.95;;;6.70;99.90;;;;;;4985754;28;20062;-74
2021/10/22 02:55:57;;;;;;;4.78;1.05;;;6.70;99.90;;;;;;4985415;28;20066;-76
2021/10/22 02:58:23;;;;;;;2.95;1.45;;;6.70;99.90;;;;;;4985988;28;20493;-76
2021/10/22 03:00:49;;;;;;;1.67;0.60;;;6.70;99.90;;;;;;4986112;28;20041;-78
2021/10/22 03:03:15;;;;;;;2.45;0.63;;;6.70;99.90;;;;;;4983864;28;20129;-78
2021/10/22 03:05:41;;;;;;;7.93;0.50;;;6.70;99.90;;;;;;4984719;28;20027;-78
2021/10/22 03:08:08;;;;;;;3.55;0.80;;;6.70;99.90;;;;;;4984006;28;20026;-76
2021/10/22 03:10:34;;;;;;;5.72;0.63;;;6.70;99.90;;;;;;4983606;28;20054;-73
2021/10/22 03:13:01;;;;;;;4.63;0.77;;;6.70;99.90;;;;;;4985479;28;20498;-75
2021/10/22 03:15:27;;;;;;;5.50;0.77;;;6.70;99.90;;;;;;4984405;28;20034;-75
2021/10/22 03:17:54;;;;;;;7.20;0.88;;;6.70;99.90;;;;;;4983633;28;20039;-75
2021/10/22 03:20:21;;;;;;;1.50;0.80;;;6.70;99.90;;;;;;4985959;28;20023;-74
2021/10/22 03:22:47;;;;;;;1.30;0.50;;;6.60;99.90;;;;;;4983955;28;20038;-75
2021/10/22 03:25:13;;;;;;;4.82;0.82;;;6.60;99.90;;;;;;4985315;28;20031;-77
2021/10/22 03:27:40;;;;;;;1.95;0.85;;;6.60;99.90;;;;;;4984437;28;20546;-82
2021/10/22 03:30:07;;;;;;;0.70;0.52;;;6.60;99.90;;;;;;4985054;28;20098;-78
2021/10/22 03:32:32;;;;;;;4.63;0.80;;;6.60;99.90;;;;;;4985025;28;20492;-77
2021/10/22 03:35:03;;;;;;;11.05;0.88;;;6.70;99.90;;;;;;4984205;28;20038;-75
2021/10/22 03:37:29;;;;;;;5.32;0.55;;;6.60;99.90;;;;;;4985016;28;20078;-76
2021/10/22 03:39:54;;;;;;;7.10;1.02;;;6.60;99.90;;;;;;4983730;28;20031;-75
2021/10/22 03:42:21;;;;;;;2.10;0.50;;;6.60;99.90;;;;;;4985384;28;20030;-79
2021/10/22 03:44:47;;;;;;;4.18;0.90;;;6.60;99.90;;;;;;4983743;28;20031;-75
2021/10/22 03:47:13;;;;;;;0.70;0.50;;;6.60;99.90;;;;;;4985534;28;20023;-74
2021/10/22 03:49:38;;;;;;;5.40;1.60;;;6.70;99.90;;;;;;4984012;28;20065;-74
2021/10/22 03:52:04;;;;;;;6.13;1.10;;;6.70;99.90;;;;;;4984825;28;20040;-73
2021/10/22 03:54:30;;;;;;;2.72;0.40;;;6.70;99.90;;;;;;4985437;28;20055;-75
2021/10/22 03:56:56;;;;;;;2.03;0.98;;;6.70;99.90;;;;;;4984844;28;20502;-74
2021/10/22 03:59:21;;;;;;;12.13;1.40;;;6.80;99.90;;;;;;4983792;28;20042;-78
2021/10/22 04:01:48;;;;;;;4.75;1.10;;;6.80;99.90;;;;;;4984297;28;20031;-74
2021/10/22 04:04:13;;;;;;;2.53;1.00;;;6.80;99.90;;;;;;4985592;28;20027;-75
2021/10/22 04:06:39;;;;;;;6.25;0.98;;;6.90;99.90;;;;;;4983370;28;20141;-72
2021/10/22 04:09:05;;;;;;;3.80;0.65;;;6.90;99.90;;;;;;4984618;28;20518;-74
2021/10/22 04:11:31;;;;;;;1.95;0.55;;;6.90;99.90;;;;;;4983486;28;20049;-75
2021/10/22 04:13:56;;;;;;;3.13;1.00;;;7.00;99.90;;;;;;4985019;28;20062;-76
2021/10/22 04:16:23;;;;;;;1.75;0.70;;;7.00;99.90;;;;;;4983402;28;20111;-78
2021/10/22 04:18:49;;;;;;;10.13;1.52;;;7.00;99.90;;;;;;4984630;28;20027;-75
2021/10/22 04:21:15;;;;;;;7.25;0.98;;;7.10;99.90;;;;;;4983026;28;20027;-75
2021/10/22 04:23:41;;;;;;;0.77;0.30;;;7.10;99.90;;;;;;4985269;28;20158;-78
2021/10/22 04:26:07;;;;;;;2.10;0.75;;;7.10;99.90;;;;;;4982973;28;20023;-76
2021/10/22 04:28:32;;;;;;;2.88;0.80;;;7.10;99.90;;;;;;4984133;28;20115;-76
2021/10/22 04:30:58;;;;;;;2.92;0.88;;;7.20;99.90;;;;;;4984605;28;20035;-76
2021/10/22 04:33:24;;;;;;;3.90;0.77;;;7.20;99.90;;;;;;4983191;28;20023;-77
2021/10/22 04:35:49;;;;;;;6.13;1.25;;;7.20;99.90;;;;;;4983525;28;20529;-78
2021/10/22 04:40:46;;;;;;;4.63;0.80;;;7.20;99.90;;;;;;4984551;28;20117;-76
2021/10/22 04:43:17;;;;;;;5.80;1.05;;;7.20;99.90;;;;;;4984875;28;20069;-76
2021/10/22 04:45:46;;;;;;;5.60;0.60;;;7.20;99.90;;;;;;4987123;28;20027;-78
2021/10/22 04:48:13;;;;;;;4.45;1.83;;;7.20;99.90;;;;;;4988008;28;20042;-78
2021/10/22 04:50:47;;;;;;;3.10;1.63;;;7.20;99.90;;;;;;4988250;28;20123;-77
2021/10/22 04:53:14;;;;;;;3.88;0.95;;;7.20;99.90;;;;;;4986493;28;20760;-78
2021/10/22 04:55:39;;;;;;;10.35;0.80;;;7.20;99.90;;;;;;4988363;28;20110;-77
2021/10/22 04:58:06;;;;;;;1.05;0.50;;;7.20;99.90;;;;;;4988055;28;20022;-77
2021/10/22 05:00:32;;;;;;;2.47;0.57;;;7.20;99.90;;;;;;4987731;28;20043;-78
2021/10/22 05:02:58;;;;;;;3.40;1.33;;;7.20;99.90;;;;;;4987408;28;20031;-74
2021/10/22 05:05:23;;;;;;;3.05;1.20;;;7.20;99.90;;;;;;4988508;28;20031;-77
2021/10/22 05:07:49;;;;;;;9.95;0.77;;;7.20;99.90;;;;;;4987819;28;20058;-80
2021/10/22 05:10:15;;;;;;;10.35;0.68;;;7.20;99.90;;;;;;4986286;28;20042;-82
2021/10/22 05:12:41;;;;;;;3.42;1.20;;;7.20;99.90;;;;;;4987153;28;20030;-77
2021/10/22 05:15:09;;;;;;;2.03;0.70;;;7.20;99.90;;;;;;4986433;28;20027;-77
2021/10/22 05:17:35;;;;;;;4.53;1.17;;;7.20;99.90;;;;;;4986470;28;20038;-75
2021/10/22 05:20:02;;;;;;;2.85;1.33;;;7.20;99.90;;;;;;4987905;28;20035;-79
2021/10/22 05:22:29;;;;;;;10.75;1.55;;;7.20;99.90;;;;;;4986316;28;20034;-75
2021/10/22 05:24:58;;;;;;;4.05;0.68;;;7.20;99.90;;;;;;4986444;28;20030;-81
2021/10/22 05:27:23;;;;;;;5.22;1.17;;;7.30;99.90;;;;;;4986362;28;20023;-78
2021/10/22 05:29:49;;;;;;;4.05;1.33;;;7.20;99.90;;;;;;4987175;28;20102;-76
2021/10/22 05:32:15;;;;;;;1.55;0.43;;;7.20;99.90;;;;;;4986389;28;20037;-78
2021/10/22 05:34:40;;;;;;;4.38;1.23;;;7.20;99.90;;;;;;4987454;28;20031;-79
2021/10/22 05:37:06;;;;;;;0.75;0.70;;;7.20;99.90;;;;;;4986186;28;20027;-73
2021/10/22 05:39:32;;;;;;;3.63;0.90;;;7.20;99.90;;;;;;4987492;28;20046;-78
2021/10/22 05:41:58;;;;;;;4.70;1.25;;;7.30;99.90;;;;;;4987281;28;20068;-77
2021/10/22 05:44:24;;;;;;;15.43;1.77;;;7.20;99.90;;;;;;4987039;28;20054;-74
2021/10/22 05:46:56;;;;;;;0.60;0.40;;;7.20;99.90;;;;;;4987673;28;20039;-79
2021/10/22 05:49:22;;;;;;;6.55;1.15;;;7.20;99.90;;;;;;4974186;28;20066;-76
2021/10/22 05:51:50;;;;;;;4.40;1.73;;;7.20;99.90;;;;;;4985702;28;20081;-77
2021/10/22 05:54:15;;;;;;;4.30;1.20;;;7.20;99.90;;;;;;4984948;28;20038;-75
2021/10/22 05:56:41;;;;;;;10.20;1.80;;;7.20;99.90;;;;;;4986879;28;20529;-79
2021/10/22 05:59:08;;;;;;;3.13;1.17;;;7.20;99.90;;;;;;4985450;28;20053;-76
2021/10/22 06:01:34;;;;;;;4.50;1.35;;;7.20;99.90;;;;;;4984946;28;20450;-76
2021/10/22 06:04:00;;;;;;;5.68;0.73;;;7.20;99.90;;;;;;4968425;28;20027;-76
2021/10/22 06:06:26;;;;;;;5.95;1.67;;;7.20;99.90;;;;;;4967097;28;20027;-75
2021/10/22 06:08:52;;;;;;;1.98;0.90;;;7.20;99.90;;;;;;4967136;28;20067;-78
2021/10/22 06:11:19;;;;;;;8.43;1.38;;;7.20;99.90;;;;;;4970568;28;20071;-74
2021/10/22 06:13:46;;;;;;;19.08;1.83;;;7.20;99.90;;;;;;4982602;28;20566;-76
2021/10/22 06:16:13;;;;;;;3.00;0.68;;;7.20;99.90;;;;;;4981663;28;20558;-76
2021/10/22 06:18:51;;;;;;;6.18;0.85;;;7.20;99.90;;;;;;4982757;28;20018;-75
2021/10/22 06:21:33;;;;;;;4.50;1.20;;;7.20;99.90;;;;;;4986185;28;20533;-73
2021/10/22 06:24:02;;;;;;;4.38;0.70;;;7.10;99.90;;;;;;4984132;28;20081;-75
2021/10/22 06:26:31;;;;;;;3.28;0.77;;;7.10;99.90;;;;;;4986519;28;20030;-74
2021/10/22 06:29:05;;;;;;;8.88;1.35;;;7.20;99.90;;;;;;4986482;28;20026;-78
2021/10/22 06:31:32;;;;;;;4.00;1.25;;;7.10;99.90;;;;;;4975717;28;20035;-79
2021/10/22 06:34:00;;;;;;;10.73;0.75;;;7.10;99.90;;;;;;4985562;28;20529;-76
2021/10/22 06:36:25;;;;;;;17.45;1.20;;;7.10;99.90;;;;;;4986159;28;20027;-77
2021/10/22 06:38:52;;;;;;;1.17;0.93;;;7.20;99.90;;;;;;4984686;28;20065;-76
2021/10/22 06:41:18;;;;;;;1.08;0.68;;;7.20;99.90;;;;;;4986875;28;20501;-80
2021/10/22 06:43:46;;;;;;;12.63;1.00;;;7.30;99.90;;;;;;4989449;28;20022;-79
2021/10/22 06:46:14;;;;;;;3.65;1.17;;;7.30;99.90;;;;;;4987363;28;20022;-80
2021/10/22 06:48:41;;;;;;;2.95;1.73;;;7.30;99.90;;;;;;4986302;28;20031;-75
2021/10/22 06:51:09;;;;;;;4.57;1.48;;;7.30;99.90;;;;;;4973234;28;20043;-74
2021/10/22 06:53:36;;;;;;;7.13;1.10;;;7.30;99.90;;;;;;4966155;28;20028;-79
2021/10/22 06:56:05;;;;;;;2.63;1.27;;;7.30;99.90;;;;;;4972040;28;20083;-74
2021/10/22 06:58:31;;;;;;;11.02;1.65;;;7.40;99.90;;;;;;4981895;28;20042;-75
2021/10/22 07:00:59;;;;;;;2.17;0.60;;;7.40;99.90;;;;;;4979727;28;20032;-76
2021/10/22 07:03:26;;;;;;;1.30;0.73;;;7.30;99.90;;;;;;4966997;28;20023;-79
2021/10/22 07:08:23;;;;;;;10.13;1.02;;;7.40;99.90;;;;;;4965904;28;20053;-76
2021/10/22 07:10:49;;;;;;;1.45;0.90;;;7.50;99.90;;;;;;4966934;28;20043;-76
2021/10/22 07:13:17;;;;;;;1.80;0.60;;;7.60;99.90;;;;;;4966512;28;20031;-77
2021/10/22 07:15:43;;;;;;;11.85;2.15;;;7.60;99.90;;;;;;4974638;28;20095;-77
2021/10/22 07:18:09;;;;;;;1.10;0.40;;;7.60;99.90;;;;;;4984070;28;20034;-77
2021/10/22 07:20:36;;;;;;;3.83;0.77;;;7.70;99.90;;;;;;4982612;28;20031;-78
2021/10/22 07:23:06;;;;;;;12.27;1.40;;;7.70;99.90;;;;;;4975505;28;20042;-77
2021/10/22 07:25:32;;;;;;;9.25;1.33;;;7.70;99.90;;;;;;4969562;28;20034;-80
2021/10/22 07:28:05;;;;;;;1.73;1.05;;;7.80;99.90;;;;;;4978590;28;20027;-75
2021/10/22 07:30:31;;;;;;;8.38;0.95;;;7.80;99.90;;;;;;4983648;28;20046;-75
2021/10/22 07:32:56;;;;;;;1.90;0.63;;;7.90;99.90;;;;;;4984049;28;20031;-76
2021/10/22 07:35:22;;;;;;;1.23;0.32;;;8.00;99.90;;;;;;4982052;28;20522;-77
2021/10/22 07:37:48;;;;;;;9.75;1.42;;;8.10;99.90;;;;;;4983736;28;20034;-75
2021/10/22 07:40:17;;;;;;;4.45;1.52;;;8.10;99.90;;;;;;4983849;28;20035;-80
2021/10/22 07:42:44;;;;;;;9.73;1.00;;;8.10;99.90;;;;;;4980527;28;20425;-81
2021/10/22 07:45:09;;;;;;;10.93;1.65;;;8.20;99.90;;;;;;4985670;28;20038;-75
2021/10/22 07:47:50;;;;;;;7.10;1.52;;;8.30;99.90;;;;;;4983303;28;20027;-77
2021/10/22 07:50:19;;;;;;;6.45;1.83;;;8.40;99.90;;;;;;4985199;28;20717;-75
2021/10/22 07:52:47;;;;;;;2.00;1.13;;;8.50;99.90;;;;;;4985646;28;20023;-75
2021/10/22 07:55:14;;;;;;;9.63;1.98;;;8.50;99.90;;;;;;4983867;28;20029;-75
2021/10/22 07:57:40;;;;;;;1.65;0.80;;;8.50;99.90;;;;;;4985349;28;20034;-76
2021/10/22 08:00:06;;;;;;;2.60;1.17;;;8.70;99.90;;;;;;4985755;28;20027;-76
2021/10/22 08:02:43;;;;;;;5.05;0.95;;;8.70;99.90;;;;;;4985263;28;20034;-80
2021/10/22 08:05:10;;;;;;;0.50;0.40;;;8.70;99.90;;;;;;4985767;28;20046;-72
2021/10/22 08:07:38;;;;;;;5.57;1.65;;;8.80;99.90;;;;;;4985248;28;20472;-76
2021/10/22 08:10:05;;;;;;;3.10;0.85;;;8.80;99.90;;;;;;4984044;28;20058;-76
2021/10/22 08:12:31;;;;;;;5.30;0.50;;;8.80;99.90;;;;;;4983623;28;20085;-77
2021/10/22 08:14:57;;;;;;;11.45;0.88;;;8.80;99.90;;;;;;4984844;28;20023;-77
2021/10/22 08:17:24;;;;;;;4.90;0.82;;;8.80;99.90;;;;;;4972753;28;20499;-78
2021/10/22 08:20:04;;;;;;;2.20;1.48;;;8.80;99.90;;;;;;4967208;28;20026;-79
2021/10/22 08:22:32;;;;;;;2.95;0.70;;;8.80;99.90;;;;;;4969574;28;20031;-79
2021/10/22 08:25:06;;;;;;;4.72;1.20;;;8.80;99.90;;;;;;4980638;28;20042;-77
2021/10/22 08:27:42;;;;;;;1.52;0.73;;;8.90;99.90;;;;;;4987574;28;20023;-77
2021/10/22 08:30:14;;;;;;;3.60;1.45;;;8.90;99.90;;;;;;4987067;28;20073;-79
2021/10/22 08:32:41;;;;;;;2.05;1.00;;;8.90;99.90;;;;;;4980115;28;20561;-77
2021/10/22 08:35:08;;;;;;;2.15;0.73;;;9.00;99.90;;;;;;4988620;28;20106;-76
2021/10/22 08:37:35;;;;;;;2.40;1.15;;;9.10;99.90;;;;;;4978430;28;20034;-77
2021/10/22 08:40:03;;;;;;;4.40;1.40;;;9.10;99.90;;;;;;4968045;29;20039;-77
2021/10/22 08:42:28;;;;;;;7.75;1.17;;;9.10;99.90;;;;;;4967606;28;20031;-74
2021/10/22 08:44:56;;;;;;;4.25;1.10;;;9.00;99.90;;;;;;4967990;29;20447;-77
2021/10/22 08:47:26;;;;;;;2.97;1.30;;;9.10;99.90;;;;;;4968808;28;20055;-75
2021/10/22 08:49:57;;;;;;;1.20;0.95;;;9.10;99.90;;;;;;4969134;28;20108;-78
2021/10/22 08:52:23;;;;;;;10.50;1.10;;;9.10;99.90;;;;;;4969029;28;20031;-76
2021/10/22 08:54:49;;;;;;;4.07;0.85;;;9.10;99.90;;;;;;4981834;28;20038;-76
2021/10/22 08:57:16;;;;;;;5.95;0.93;;;9.10;99.90;;;;;;4990785;28;20038;-76
2021/10/22 08:59:42;;;;;;;10.25;1.20;;;9.20;99.90;;;;;;4989055;28;20023;-74
2021/10/22 09:02:21;;;;;;;1.65;0.93;;;9.30;99.90;;;;;;4985996;28;20077;-75
2021/10/22 09:04:49;;;;;;;13.57;1.40;;;9.30;99.90;;;;;;4972023;28;20023;-78
2021/10/22 09:07:22;;;;;;;1.75;0.82;;;9.40;99.90;;;;;;4969171;28;20031;-81
2021/10/22 09:10:08;;;;;;;2.75;1.30;;;9.50;99.90;;;;;;4970985;28;20138;-76
2021/10/22 09:13:03;;;;;;;20.73;1.40;;;9.60;99.90;;;;;;4987648;28;20041;-77
2021/10/22 09:15:41;;;;;;;8.75;1.65;;;9.60;99.90;;;;;;4987537;28;20023;-75
2021/10/22 09:18:26;;;;;;;3.33;1.17;;;9.60;99.90;;;;;;4976466;28;20153;-78
2021/10/22 09:21:00;;;;;;;0.77;0.60;;;9.50;99.90;;;;;;4988621;28;20034;-77
2021/10/22 09:23:35;;;;;;;3.85;1.30;;;9.50;99.90;;;;;;4987306;28;20038;-78
2021/10/22 09:26:17;;;;;;;2.08;1.30;;;9.40;99.90;;;;;;4968997;28;20040;-78
2021/10/22 09:28:46;;;;;;;1.77;0.95;;;9.40;99.90;;;;;;4967788;29;20042;-77
2021/10/22 09:31:17;;;;;;;9.20;1.60;;;9.30;99.90;;;;;;4980481;28;20031;-77
2021/10/22 09:33:56;;;;;;;10.18;1.27;;;9.30;99.90;;;;;;4984513;28;20133;-76
2021/10/22 09:36:42;;;;;;;2.83;0.68;;;9.30;99.90;;;;;;4987715;28;20499;-76
2021/10/22 09:39:13;;;;;;;4.80;1.50;;;9.30;99.90;;;;;;4987553;28;20027;-76
2021/10/22 09:41:51;;;;;;;2.97;0.82;;;9.40;99.90;;;;;;4987097;28;20026;-76
2021/10/22 09:44:29;;;;;;;4.20;0.77;;;9.40;99.90;;;;;;4985951;28;20047;-77
2021/10/22 09:47:04;;;;;;;5.30;1.00;;;9.40;99.90;;;;;;4987092;28;20081;-75
2021/10/22 09:49:46;;;;;;;2.45;1.08;;;9.30;99.90;;;;;;4985328;28;20502;-78
2021/10/22 09:52:26;;;;;;;1.98;0.63;;;9.30;99.90;;;;;;4973004;28;20039;-79
2021/10/22 09:55:12;;;;;;;9.05;1.02;;;9.10;99.90;;;;;;4982933;28;20049;-76
2021/10/22 09:57:44;;;;;;;3.97;1.58;;;8.90;99.90;;;;;;4970302;28;20026;-77
2021/10/22 10:00:22;;;;;;;7.25;1.50;;;8.80;99.90;;;;;;4974373;28;20031;-76
2021/10/22 10:02:52;;;;;;;2.58;0.75;;;8.60;99.90;;;;;;4988366;28;20058;-77
2021/10/22 10:05:24;;;;;;;1.75;0.65;;;8.50;99.90;;;;;;4984731;28;20177;-76
2021/10/22 10:07:52;;;;;;;12.55;1.92;;;8.50;99.90;;;;;;4985919;28;20027;-75
2021/10/22 10:10:19;;;;;;;4.93;1.73;;;8.50;99.90;;;;;;4969207;28;20074;-71
2021/10/22 10:12:46;;;;;;;6.18;1.00;;;8.40;99.90;;;;;;4984028;28;20035;-73
2021/10/22 10:15:18;;;;;;;1.92;1.20;;;8.40;99.90;;;;;;4986208;28;20049;-75
2021/10/22 10:17:50;;;;;;;2.58;0.77;;;8.30;99.90;;;;;;4985626;28;20030;-76
2021/10/22 10:20:24;;;;;;;0.45;0.38;;;8.30;99.90;;;;;;4965810;28;20090;-76
2021/10/22 10:22:51;;;;;;;3.15;0.50;;;8.20;99.90;;;;;;4966547;28;20055;-77
2021/10/22 10:25:20;;;;;;;1.20;0.20;;;8.20;99.90;;;;;;4965363;28;20484;-79
2021/10/22 10:27:59;;;;;;;1.10;0.40;;;8.10;99.90;;;;;;4970483;28;20022;-77
2021/10/22 10:30:31;;;;;;;0.98;0.40;;;8.00;99.90;;;;;;4985640;28;20049;-75
2021/10/22 10:33:02;;;;;;;0.43;0.40;;;8.00;99.90;;;;;;4981142;28;20023;-76
2021/10/22 10:35:40;;;;;;;0.80;0.35;;;8.00;99.90;;;;;;4969170;28;20026;-78
2021/10/22 10:38:12;;;;;;;5.93;0.80;;;8.00;99.90;;;;;;4980955;28;20372;-73
2021/10/22 10:40:45;;;;;;;6.43;0.98;;;8.00;99.90;;;;;;4984989;28;20426;-75
2021/10/22 10:43:23;;;;;;;2.55;0.75;;;8.00;99.90;;;;;;4980312;28;20542;-74
2021/10/22 10:45:49;;;;;;;2.28;0.50;;;8.10;99.90;;;;;;4964939;29;20039;-75
2021/10/22 10:48:20;;;;;;;0.63;0.55;;;8.10;99.90;;;;;;4966457;28;20031;-78
2021/10/22 10:51:04;;;;;;;0.77;0.50;;;8.10;99.90;;;;;;4984979;28;20129;-75
2021/10/22 10:53:44;;;;;;;0.70;0.38;;;8.10;99.90;;;;;;4983864;28;20034;-76
2021/10/22 10:56:23;;;;;;;1.05;0.40;;;8.20;99.90;;;;;;4985201;28;20121;-77
2021/10/22 10:58:53;;;;;;;4.25;0.80;;;8.20;99.90;;;;;;4982459;28;20127;-76
2021/10/22 11:01:28;;;;;;;6.13;0.77;;;8.20;99.90;;;;;;4983148;28;20031;-77
2021/10/22 11:03:55;;;;;;;0.85;0.65;;;8.30;99.90;;;;;;4983555;28;20035;-77
2021/10/22 11:06:49;;;;;;;6.47;0.65;;;8.30;99.90;;;;;;4983718;28;20026;-74
2021/10/22 11:09:26;;;;;;;3.88;0.40;;;8.30;99.90;;;;;;4983456;28;20051;-77
2021/10/22 11:11:59;;;;;;;8.40;0.82;;;8.40;99.90;;;;;;4984470;28;20043;-75
2021/10/22 11:14:25;;;;;;;3.53;0.88;;;8.50;99.90;;;;;;4984233;28;20484;-75
2021/10/22 11:16:57;;;;;;;2.38;0.73;;;8.50;99.90;;;;;;4984707;28;20058;-75
2021/10/22 11:19:34;;;;;;;1.65;0.73;;;8.70;99.90;;;;;;4982694;28;20045;-76
2021/10/22 11:22:05;;;;;;;4.47;0.90;;;8.80;99.90;;;;;;4975722;28;20030;-75
2021/10/22 11:24:33;;;;;;;1.33;0.85;;;8.80;99.90;;;;;;4982068;28;20522;-76
2021/10/22 11:26:59;;;;;;;4.38;0.70;;;8.80;99.90;;;;;;4984251;28;20027;-77
2021/10/22 11:29:26;;;;;;;0.55;0.35;;;8.70;99.90;;;;;;4982873;28;20031;-75
2021/10/22 11:31:57;;;;;;;1.95;0.63;;;8.80;99.90;;;;;;4983379;28;20064;-76
2021/10/22 11:34:38;;;;;;;1.23;0.50;;;8.80;99.90;;;;;;4982537;28;20023;-77
2021/10/22 11:37:15;;;;;;;9.20;0.85;;;8.80;99.90;;;;;;4984569;28;20077;-79
2021/10/22 11:39:58;;;;;;;1.45;0.45;;;8.70;99.90;;;;;;4985025;28;20073;-76
2021/10/22 11:42:28;;;;;;;3.75;1.02;;;8.70;99.90;;;;;;4982561;28;20057;-76
2021/10/22 11:45:15;;;;;;;3.80;0.77;;;8.60;99.90;;;;;;4982798;28;20037;-78
2021/10/22 11:47:49;;;;;;;3.20;0.65;;;8.60;99.90;;;;;;4985308;28;20038;-75
2021/10/22 11:50:23;;;;;;;0.57;0.57;;;8.60;99.90;;;;;;4984308;28;20057;-76
2021/10/22 11:53:14;;;;;;;2.43;1.27;;;8.70;99.90;;;;;;4985645;28;20031;-76
2021/10/22 11:55:53;;;;;;;9.80;0.85;;;8.90;99.90;;;;;;4990535;28;20274;-75
2021/10/22 11:58:24;;;;;;;4.63;1.35;;;9.10;99.90;;;;;;4987404;28;20054;-77
2021/10/22 12:00:53;;;;;;;3.50;0.45;;;9.20;99.90;;;;;;4989139;28;20031;-77
2021/10/22 12:03:36;;;;;;;9.80;0.95;;;9.20;99.90;;;;;;4975493;28;20046;-78
2021/10/22 12:06:17;;;;;;;3.70;0.90;;;9.20;99.90;;;;;;4989432;28;20045;-78
2021/10/22 12:08:43;;;;;;;6.70;0.93;;;9.30;99.90;;;;;;4990402;28;20055;-75
2021/10/22 12:11:09;;;;;;;1.30;0.52;;;9.30;99.90;;;;;;4988544;28;20118;-75
2021/10/22 12:13:40;;;;;;;2.00;0.73;;;9.30;99.90;;;;;;4989731;28;20026;-75
2021/10/22 12:16:15;;;;;;;4.78;0.28;;;9.20;99.90;;;;;;4990531;28;20039;-76
2021/10/22 12:18:55;;;;;;;8.75;0.43;;;9.20;99.90;;;;;;4988614;28;20547;-78
2021/10/22 12:21:25;;;;;;;0.65;0.40;;;9.20;99.90;;;;;;4990104;28;20094;-77
2021/10/22 12:23:55;;;;;;;1.33;0.40;;;9.10;99.90;;;;;;4989747;28;20054;-77
2021/10/22 12:26:23;;;;;;;7.53;0.57;;;9.00;99.90;;;;;;4988446;28;20126;-77
2021/10/22 12:29:06;;;;;;;1.33;0.40;;;8.90;99.90;;;;;;4990088;28;20030;-79
2021/10/22 12:31:37;;;;;;;1.38;0.65;;;8.90;99.90;;;;;;4972145;28;20043;-76
2021/10/22 12:34:15;;;;;;;6.07;0.82;;;8.80;99.90;;;;;;4982496;28;20089;-74
2021/10/22 12:36:44;;;;;;;7.35;0.68;;;8.80;99.90;;;;;;4989838;28;20023;-75
2021/10/22 12:39:24;;;;;;;3.72;0.28;;;8.70;99.90;;;;;;4984744;28;20035;-75
2021/10/22 12:41:50;;;;;;;0.30;0.30;;;8.70;99.90;;;;;;4986406;28;20027;-75
2021/10/22 12:44:18;;;;;;;1.85;0.40;;;8.60;99.90;;;;;;4987645;28;20027;-78
2021/10/22 12:46:55;;;;;;;3.33;0.95;;;8.60;99.90;;;;;;4990362;28;20039;-76
2021/10/22 12:49:29;;;;;;;1.02;0.75;;;8.60;99.90;;;;;;4977510;28;20027;-74
2021/10/22 12:52:04;;;;;;;4.35;0.90;;;8.60;99.90;;;;;;4982317;28;20047;-76
2021/10/22 12:54:30;;;;;;;0.20;0.20;;;8.70;99.90;;;;;;4985394;28;20039;-77
2021/10/22 12:56:57;;;;;;;1.15;0.75;;;8.90;99.90;;;;;;4986483;28;20042;-75
2021/10/22 12:59:29;;;;;;;4.72;1.42;;;9.00;99.90;;;;;;4975995;28;20038;-75
2021/10/22 13:01:55;;;;;;;10.98;1.13;;;9.00;99.90;;;;;;4988646;28;20119;-74
2021/10/22 13:04:24;;;;;;;1.70;0.73;;;9.30;99.90;;;;;;4990690;28;20023;-77
2021/10/22 13:07:10;;;;;;;4.43;0.75;;;9.70;99.90;;;;;;4981558;28;20039;-75
2021/10/22 13:09:44;;;;;;;10.18;0.68;;;9.70;99.90;;;;;;4987626;28;20065;-76